createdAt,value
2022-12-22T00:00:41.130Z,3.93
2022-12-22T00:03:43.969Z,3.92
2022-12-22T00:06:30.775Z,3.91
2022-12-22T00:09:17.273Z,3.94
2022-12-22T00:12:05.192Z,3.93
2022-12-22T00:14:52.585Z,3.91
2022-12-22T00:17:48.181Z,3.94
2022-12-22T00:20:37.986Z,3.95
2022-12-22T00:23:24.689Z,3.92
2022-12-22T00:26:11.205Z,3.89
2022-12-22T00:28:57.797Z,3.87
2022-12-22T00:31:45.452Z,3.87
2022-12-22T00:34:36.339Z,3.84
2022-12-22T00:37:22.868Z,3.84
2022-12-22T00:40:09.475Z,3.86
2022-12-22T00:42:55.653Z,3.87
2022-12-22T00:45:42.433Z,3.90
2022-12-22T00:48:49.257Z,3.91
2022-12-22T00:51:36.582Z,3.93
2022-12-22T00:54:28.067Z,3.91
2022-12-22T00:57:14.623Z,3.91
2022-12-22T01:00:01.185Z,3.92
2022-12-22T01:02:48.006Z,3.87
2022-12-22T01:05:34.799Z,3.85
2022-12-22T01:08:21.582Z,3.87
2022-12-22T01:11:08.108Z,3.87
2022-12-22T01:13:54.694Z,3.86
2022-12-22T01:16:40.979Z,3.84
2022-12-22T01:19:27.268Z,3.84
2022-12-22T01:22:15.615Z,3.85
2022-12-22T01:25:03.675Z,3.85
2022-12-22T01:27:50.273Z,3.88
2022-12-22T01:30:37.015Z,3.86
2022-12-22T01:33:23.235Z,3.87
2022-12-22T01:36:09.516Z,3.86
2022-12-22T01:38:56.178Z,3.89
2022-12-22T01:41:42.644Z,3.87
2022-12-22T01:44:36.885Z,3.85
2022-12-22T01:47:48.586Z,3.84
2022-12-22T01:50:40.475Z,3.80
2022-12-22T01:53:33.548Z,3.80
2022-12-22T01:56:20.726Z,3.79
2022-12-22T01:59:11.741Z,3.79
2022-12-22T02:02:00.242Z,3.76
2022-12-22T02:04:55.435Z,3.75
2022-12-22T02:07:51.145Z,3.76
2022-12-22T02:10:53.767Z,3.79
2022-12-22T02:13:46.381Z,3.83
2022-12-22T02:16:43.115Z,3.88
2022-12-22T02:19:54.888Z,3.91
2022-12-22T02:23:20.951Z,3.94
2022-12-22T02:26:39.629Z,3.93
2022-12-22T02:29:26.686Z,3.92
2022-12-22T02:32:14.087Z,3.97
2022-12-22T02:35:00.599Z,3.95
2022-12-22T02:37:53.173Z,3.91
2022-12-22T02:40:52.770Z,3.91
2022-12-22T02:43:53.905Z,3.89
2022-12-22T02:46:48.349Z,3.88
2022-12-22T02:49:39.991Z,3.88
2022-12-22T02:52:35.783Z,3.88
2022-12-22T02:55:24.143Z,3.87
2022-12-22T02:58:11.516Z,3.87
2022-12-22T03:00:59.166Z,3.85
2022-12-22T03:03:45.831Z,3.85
2022-12-22T03:06:32.429Z,3.82
2022-12-22T03:09:18.681Z,3.81
2022-12-22T03:12:05.678Z,3.80
2022-12-22T03:14:52.017Z,3.78
2022-12-22T03:17:38.695Z,3.76
2022-12-22T03:20:26.212Z,3.75
2022-12-22T03:23:12.681Z,3.72
2022-12-22T03:25:55.717Z,3.73
2022-12-22T03:28:26.656Z,3.75
2022-12-22T03:31:00.098Z,3.77
2022-12-22T03:33:29.212Z,3.78
2022-12-22T03:35:58.038Z,3.84
2022-12-22T03:38:26.382Z,3.88
2022-12-22T03:40:55.433Z,3.91
2022-12-22T03:43:43.980Z,3.96
2022-12-22T03:46:33.046Z,3.90
2022-12-22T03:49:10.805Z,3.88
2022-12-22T03:51:44.738Z,3.82
2022-12-22T03:54:19.456Z,3.78
2022-12-22T03:56:48.245Z,3.75
2022-12-22T03:59:16.992Z,3.69
2022-12-22T04:01:47.648Z,3.64
2022-12-22T04:04:17.968Z,3.62
2022-12-22T04:06:46.673Z,3.59
2022-12-22T04:09:14.775Z,3.56
2022-12-22T04:12:01.271Z,3.53
2022-12-22T04:14:33.941Z,3.45
2022-12-22T04:17:04.727Z,3.41
2022-12-22T04:19:32.956Z,3.37
2022-12-22T04:22:01.582Z,3.31
2022-12-22T04:24:29.394Z,3.33
2022-12-22T04:26:57.371Z,3.33
2022-12-22T04:29:25.148Z,3.35
2022-12-22T04:31:53.088Z,3.36
2022-12-22T04:34:21.058Z,3.35
2022-12-22T04:36:49.016Z,3.31
2022-12-22T04:39:16.995Z,3.27
2022-12-22T04:41:45.292Z,3.23
2022-12-22T04:44:13.226Z,3.21
2022-12-22T04:46:41.147Z,3.23
2022-12-22T04:49:09.135Z,3.24
2022-12-22T04:51:37.075Z,3.26
2022-12-22T04:54:05.053Z,3.23
2022-12-22T04:56:32.887Z,3.26
2022-12-22T04:59:00.829Z,3.28
2022-12-22T05:01:28.846Z,3.19
2022-12-22T05:03:56.960Z,3.13
2022-12-22T05:06:24.838Z,3.13
2022-12-22T05:08:52.736Z,3.15
2022-12-22T05:11:21.456Z,3.18
2022-12-22T05:13:49.339Z,3.20
2022-12-22T05:16:17.882Z,3.29
2022-12-22T05:18:46.755Z,3.29
2022-12-22T05:21:18.790Z,3.27
2022-12-22T05:23:47.562Z,3.28
2022-12-22T05:26:17.456Z,3.27
2022-12-22T05:28:47.854Z,3.25
2022-12-22T05:31:21.485Z,3.26
2022-12-22T05:33:50.168Z,3.25
2022-12-22T05:36:19.053Z,3.20
2022-12-22T05:38:47.088Z,3.17
2022-12-22T05:41:15.094Z,3.11
2022-12-22T05:43:42.991Z,3.04
2022-12-22T05:46:11.833Z,3.02
2022-12-22T05:48:40.449Z,3.01
2022-12-22T05:51:09.768Z,3.07
2022-12-22T05:53:38.613Z,3.07
2022-12-22T05:56:08.119Z,3.04
2022-12-22T05:58:38.765Z,2.99
2022-12-22T06:01:07.387Z,2.97
2022-12-22T06:03:35.687Z,2.97
2022-12-22T06:06:05.966Z,2.93
2022-12-22T06:08:33.922Z,2.91
2022-12-22T06:11:01.871Z,2.92
2022-12-22T06:13:29.795Z,2.93
2022-12-22T06:15:57.745Z,2.88
2022-12-22T06:18:25.623Z,2.82
2022-12-22T06:20:53.976Z,2.77
2022-12-22T06:23:22.642Z,2.72
2022-12-22T06:25:58.819Z,2.67
2022-12-22T06:28:27.570Z,2.68
2022-12-22T06:30:56.352Z,2.72
2022-12-22T06:33:24.280Z,2.72
2022-12-22T06:36:42.271Z,2.65
2022-12-22T06:39:10.192Z,2.59
2022-12-22T06:41:56.918Z,2.58
2022-12-22T06:44:24.803Z,2.56
2022-12-22T06:46:53.123Z,2.49
2022-12-22T06:49:21.455Z,2.43
2022-12-22T06:51:49.931Z,2.34
2022-12-22T06:54:23.945Z,2.39
2022-12-22T06:56:54.934Z,2.40
2022-12-22T06:59:23.107Z,2.38
2022-12-22T07:01:51.252Z,2.40
2022-12-22T07:04:21.465Z,2.38
2022-12-22T07:06:49.469Z,2.32
2022-12-22T07:09:17.443Z,2.29
2022-12-22T07:11:45.257Z,2.27
2022-12-22T07:14:13.164Z,2.24
2022-12-22T07:16:41.367Z,2.18
2022-12-22T07:19:09.632Z,2.11
2022-12-22T07:21:37.683Z,2.11
2022-12-22T07:24:06.296Z,2.07
2022-12-22T07:26:34.359Z,2.07
2022-12-22T07:29:02.526Z,2.06
2022-12-22T07:31:30.430Z,2.10
2022-12-22T07:33:58.458Z,2.13
2022-12-22T07:36:26.632Z,2.18
2022-12-22T07:38:54.909Z,2.22
2022-12-22T07:41:41.573Z,2.20
2022-12-22T07:44:09.727Z,2.18
2022-12-22T07:46:39.703Z,2.17
2022-12-22T07:49:26.728Z,2.17
2022-12-22T07:51:57.230Z,2.18
2022-12-22T07:54:26.605Z,2.16
2022-12-22T07:56:54.485Z,2.20
2022-12-22T07:59:22.667Z,2.26
2022-12-22T08:01:51.065Z,2.32
2022-12-22T08:04:19.493Z,2.40
2022-12-22T08:06:47.562Z,2.46
2022-12-22T08:09:17.641Z,2.49
2022-12-22T08:11:45.912Z,2.44
2022-12-22T08:14:14.115Z,2.42
2022-12-22T08:16:42.521Z,2.44
2022-12-22T08:19:10.654Z,2.50
2022-12-22T08:21:38.913Z,2.49
2022-12-22T08:24:08.081Z,2.44
2022-12-22T08:26:44.481Z,2.41
2022-12-22T08:29:36.211Z,2.44
2022-12-22T08:32:05.190Z,2.45
2022-12-22T08:34:33.384Z,2.50
2022-12-22T08:37:05.619Z,2.53
2022-12-22T08:39:38.723Z,2.55
2022-12-22T08:42:11.000Z,2.59
2022-12-22T08:44:39.163Z,2.61
2022-12-22T08:47:11.480Z,2.60
2022-12-22T08:49:43.196Z,2.60
2022-12-22T08:52:17.852Z,2.62
2022-12-22T08:54:47.285Z,2.61
2022-12-22T08:57:15.251Z,2.60
2022-12-22T08:59:43.365Z,2.63
2022-12-22T09:02:11.532Z,2.60
2022-12-22T09:04:39.812Z,2.61
2022-12-22T09:07:08.088Z,2.68
2022-12-22T09:09:36.054Z,2.68
2022-12-22T09:12:04.725Z,2.74
2022-12-22T09:14:33.013Z,2.82
2022-12-22T09:17:01.067Z,2.81
2022-12-22T09:19:29.184Z,2.82
2022-12-22T09:21:57.536Z,2.79
2022-12-22T09:24:25.613Z,2.79
2022-12-22T09:26:53.817Z,2.72
2022-12-22T09:29:21.849Z,2.66
2022-12-22T09:31:49.949Z,2.65
2022-12-22T09:34:18.839Z,2.67
2022-12-22T09:36:47.776Z,2.76
2022-12-22T09:39:16.159Z,2.78
2022-12-22T09:41:53.260Z,2.78
2022-12-22T09:44:32.191Z,2.80
2022-12-22T09:47:02.934Z,2.83
2022-12-22T09:49:31.302Z,2.82
2022-12-22T09:52:02.593Z,2.85
2022-12-22T09:54:30.844Z,2.93
2022-12-22T09:56:58.936Z,2.91
2022-12-22T09:59:28.556Z,2.88
2022-12-22T10:02:21.391Z,2.81
2022-12-22T10:05:00.627Z,2.78
2022-12-22T10:07:39.376Z,2.80
2022-12-22T10:10:17.316Z,2.81
2022-12-22T10:12:45.380Z,2.82
2022-12-22T10:15:18.307Z,2.86
2022-12-22T10:17:51.613Z,2.94
2022-12-22T10:20:20.932Z,3.03
2022-12-22T10:23:06.967Z,3.00
2022-12-22T10:26:00.445Z,2.99
2022-12-22T10:28:30.695Z,3.03
2022-12-22T10:31:20.821Z,3.07
2022-12-22T10:33:52.162Z,3.12
2022-12-22T10:36:27.656Z,3.14
2022-12-22T10:39:05.374Z,3.14
2022-12-22T10:41:47.617Z,3.21
2022-12-22T10:44:15.586Z,3.23
2022-12-22T10:46:52.040Z,3.24
2022-12-22T10:52:15.678Z,3.26
2022-12-22T10:54:45.458Z,3.31
2022-12-22T10:57:13.298Z,3.26
2022-12-22T11:00:01.190Z,3.27
2022-12-22T11:02:33.954Z,3.24
2022-12-22T11:05:08.687Z,3.20
2022-12-22T11:07:47.405Z,3.21
2022-12-22T11:10:23.058Z,3.23
2022-12-22T11:13:21.823Z,3.26
2022-12-22T11:16:12.059Z,3.34
2022-12-22T11:19:24.170Z,3.41
2022-12-22T11:22:33.401Z,3.41
2022-12-22T11:25:23.071Z,3.46
2022-12-22T11:28:28.883Z,3.54
2022-12-22T11:31:34.181Z,3.56
2022-12-22T11:34:09.185Z,3.60
2022-12-22T11:37:11.534Z,3.64
2022-12-22T11:39:59.550Z,3.72
2022-12-22T11:43:06.456Z,3.72
2022-12-22T11:45:43.548Z,3.76
2022-12-22T11:48:27.584Z,3.76
2022-12-22T11:51:28.070Z,3.73
2022-12-22T11:54:01.747Z,3.69
2022-12-22T11:56:42.895Z,3.67
2022-12-22T11:59:34.279Z,3.66
2022-12-22T12:02:22.214Z,3.62
2022-12-22T12:05:24.320Z,3.61
2022-12-22T12:08:00.990Z,3.55
2022-12-22T12:10:49.031Z,3.51
2022-12-22T12:13:34.806Z,3.43
2022-12-22T12:16:25.343Z,3.45
2022-12-22T12:19:05.046Z,3.51
2022-12-22T12:21:49.144Z,3.52
2022-12-22T12:24:34.062Z,3.56
2022-12-22T12:27:36.901Z,3.56
2022-12-22T12:33:48.664Z,3.59
2022-12-22T12:36:41.019Z,3.64
2022-12-22T12:39:33.654Z,3.69
2022-12-22T12:42:12.738Z,3.66
2022-12-22T12:44:40.919Z,3.65
2022-12-22T12:47:25.514Z,3.69
2022-12-22T12:50:06.263Z,3.67
2022-12-22T12:52:40.554Z,3.68
2022-12-22T12:55:32.742Z,3.65
2022-12-22T12:58:04.358Z,3.67
2022-12-22T13:00:32.461Z,3.68
2022-12-22T13:03:02.882Z,3.68
2022-12-22T13:05:49.895Z,3.67
2022-12-22T13:08:25.947Z,3.70
2022-12-22T13:10:53.895Z,3.69
2022-12-22T13:13:21.922Z,3.69
2022-12-22T13:16:12.859Z,3.74
2022-12-22T13:18:51.121Z,3.79
2022-12-22T13:21:52.411Z,3.84
2022-12-22T13:24:28.733Z,3.88
2022-12-22T13:27:03.673Z,3.88
2022-12-22T13:29:47.246Z,3.86
2022-12-22T13:32:30.128Z,3.87
2022-12-22T13:35:31.109Z,3.89
2022-12-22T13:38:00.412Z,3.85
2022-12-22T13:40:40.732Z,3.85
2022-12-22T13:43:16.213Z,3.87
2022-12-22T13:45:49.267Z,3.88
2022-12-22T13:48:24.828Z,3.86
2022-12-22T13:50:55.845Z,3.87
2022-12-22T13:56:28.361Z,3.93
2022-12-22T13:59:00.073Z,3.96
2022-12-22T14:01:29.181Z,3.96
2022-12-22T14:04:04.650Z,3.92
2022-12-22T14:06:41.355Z,3.90
2022-12-22T14:09:17.037Z,3.90
2022-12-22T14:12:06.610Z,3.86
2022-12-22T14:14:37.440Z,3.86
2022-12-22T14:17:25.598Z,3.89
2022-12-22T14:19:56.460Z,3.93
2022-12-22T14:22:29.145Z,4.04
2022-12-22T14:25:01.736Z,4.12
2022-12-22T14:27:35.399Z,4.11
2022-12-22T14:30:07.544Z,4.07
2022-12-22T14:32:54.357Z,4.01
2022-12-22T14:35:23.235Z,3.97
2022-12-22T14:37:52.593Z,3.94
2022-12-22T14:40:41.724Z,3.92
2022-12-22T14:43:18.913Z,3.86
2022-12-22T14:45:49.190Z,3.87
2022-12-22T14:48:23.471Z,3.82
2022-12-22T14:50:53.239Z,3.81
2022-12-22T14:53:28.964Z,3.81
2022-12-22T14:55:57.052Z,3.81
2022-12-22T14:58:35.105Z,3.79
2022-12-22T15:01:30.440Z,3.79
2022-12-22T15:04:00.318Z,3.82
2022-12-22T15:06:28.395Z,3.76
2022-12-22T15:09:12.148Z,3.75
2022-12-22T15:11:53.867Z,3.74
2022-12-22T15:14:23.369Z,3.70
2022-12-22T15:16:56.692Z,3.72
2022-12-22T15:19:28.182Z,3.76
2022-12-22T15:21:56.114Z,3.75
2022-12-22T15:24:24.663Z,3.74
2022-12-22T15:26:52.646Z,3.76
2022-12-22T15:29:20.880Z,3.78
2022-12-22T15:31:48.776Z,3.76
2022-12-22T15:34:23.957Z,3.75
2022-12-22T15:36:52.434Z,3.73
2022-12-22T15:39:21.827Z,3.72
2022-12-22T15:41:50.174Z,3.73
2022-12-22T15:44:18.453Z,3.74
2022-12-22T15:46:54.495Z,3.77
2022-12-22T15:49:29.353Z,3.82
2022-12-22T15:52:03.807Z,3.86
2022-12-22T15:54:36.313Z,3.90
2022-12-22T15:57:14.786Z,3.96
2022-12-22T15:59:43.011Z,4.00
2022-12-22T16:02:13.573Z,3.97
2022-12-22T16:04:41.852Z,3.96
2022-12-22T16:07:12.419Z,3.97
2022-12-22T16:09:42.933Z,4.00
2022-12-22T16:12:17.300Z,4.06
2022-12-22T16:14:51.101Z,4.11
2022-12-22T16:17:22.418Z,4.06
2022-12-22T16:19:50.553Z,4.03
2022-12-22T16:22:32.304Z,4.06
2022-12-22T16:25:03.210Z,4.08
2022-12-22T16:27:31.581Z,4.12
2022-12-22T16:29:59.648Z,4.10
2022-12-22T16:32:30.650Z,4.06
2022-12-22T16:35:19.023Z,4.03
2022-12-22T16:37:50.995Z,3.94
2022-12-22T16:40:19.424Z,3.92
2022-12-22T16:45:59.541Z,3.86
2022-12-22T16:48:55.360Z,3.88
2022-12-22T16:51:48.364Z,3.90
2022-12-22T16:54:16.327Z,3.91
2022-12-22T16:56:50.835Z,3.93
2022-12-22T16:59:18.967Z,3.95
2022-12-22T17:01:56.159Z,3.94
2022-12-22T17:04:28.823Z,3.94
2022-12-22T17:06:59.780Z,3.93
2022-12-22T17:09:34.138Z,3.90
2022-12-22T17:12:03.327Z,3.89
2022-12-22T17:14:39.113Z,3.90
2022-12-22T17:17:15.027Z,3.91
2022-12-22T17:19:43.752Z,3.90
2022-12-22T17:22:30.401Z,3.92
2022-12-22T17:25:02.069Z,3.98
2022-12-22T17:27:31.778Z,4.00
2022-12-22T17:30:03.480Z,4.01
2022-12-22T17:32:31.348Z,4.05
2022-12-22T17:34:59.476Z,4.07
2022-12-22T17:37:27.398Z,4.09
2022-12-22T17:40:01.098Z,4.09
2022-12-22T17:42:31.574Z,4.06
2022-12-22T17:44:59.527Z,4.05
2022-12-22T17:47:33.461Z,4.06
2022-12-22T17:50:04.467Z,4.06
2022-12-22T17:52:33.352Z,4.12
2022-12-22T17:55:01.209Z,4.17
2022-12-22T17:57:32.955Z,4.17
2022-12-22T18:00:00.843Z,4.16
2022-12-22T18:02:29.994Z,4.17
2022-12-22T18:04:59.028Z,4.24
2022-12-22T18:07:26.984Z,4.22
2022-12-22T18:09:59.707Z,4.20
2022-12-22T18:12:29.917Z,4.16
2022-12-22T18:14:57.934Z,4.14
2022-12-22T18:17:35.095Z,4.13
2022-12-22T18:20:03.875Z,4.11
2022-12-22T18:22:32.956Z,4.11
2022-12-22T18:25:00.915Z,4.10
2022-12-22T18:27:28.827Z,4.08
2022-12-22T18:29:56.852Z,4.08
2022-12-22T18:32:27.903Z,4.11
2022-12-22T18:34:56.091Z,4.09
2022-12-22T18:37:24.024Z,4.07
2022-12-22T18:39:51.862Z,4.04
2022-12-22T18:42:22.399Z,4.07
2022-12-22T18:44:51.218Z,4.09
2022-12-22T18:47:19.752Z,4.11
2022-12-22T18:49:47.647Z,4.19
2022-12-22T18:52:21.378Z,4.31
2022-12-22T18:54:49.845Z,4.34
2022-12-22T18:57:19.622Z,4.35
2022-12-22T18:59:50.578Z,4.32
2022-12-22T19:02:23.517Z,4.27
2022-12-22T19:04:53.185Z,4.22
2022-12-22T19:07:23.749Z,4.17
2022-12-22T19:09:51.861Z,4.10
2022-12-22T19:12:25.285Z,4.05
2022-12-22T19:14:56.927Z,4.03
2022-12-22T19:17:28.720Z,4.05
2022-12-22T19:19:57.455Z,4.04
2022-12-22T19:22:25.638Z,4.02
2022-12-22T19:24:57.443Z,4.02
2022-12-22T19:27:27.901Z,4.04
2022-12-22T19:30:03.610Z,4.06
2022-12-22T19:32:46.360Z,4.10
2022-12-22T19:35:20.180Z,4.11
2022-12-22T19:37:50.351Z,4.13
2022-12-22T19:40:21.358Z,4.16
2022-12-22T19:42:53.566Z,4.19
2022-12-22T19:45:34.454Z,4.23
2022-12-22T19:48:04.936Z,4.23
2022-12-22T19:50:32.957Z,4.25
2022-12-22T19:53:02.084Z,4.26
2022-12-22T19:55:36.869Z,4.25
2022-12-22T19:58:04.758Z,4.29
2022-12-22T20:00:32.983Z,4.31
2022-12-22T20:03:01.180Z,4.32
2022-12-22T20:05:31.222Z,4.27
2022-12-22T20:08:00.962Z,4.24
2022-12-22T20:10:31.304Z,4.19
2022-12-22T20:13:37.006Z,4.15
2022-12-22T20:16:05.666Z,4.13
2022-12-22T20:18:33.853Z,4.10
2022-12-22T20:21:10.813Z,4.06
2022-12-22T20:23:39.552Z,4.05
2022-12-22T20:26:15.703Z,4.03
2022-12-22T20:28:44.183Z,4.00
2022-12-22T20:31:14.626Z,4.00
2022-12-22T20:33:42.719Z,4.02
2022-12-22T20:36:23.028Z,4.04
2022-12-22T20:38:52.521Z,4.06
2022-12-22T20:41:21.854Z,4.06
2022-12-22T20:43:50.147Z,4.06
2022-12-22T20:46:26.002Z,4.06
2022-12-22T20:49:02.368Z,4.06
2022-12-22T20:51:33.522Z,4.08
2022-12-22T20:54:01.698Z,4.09
2022-12-22T20:56:32.917Z,4.13
2022-12-22T20:59:21.860Z,4.16
2022-12-22T21:01:52.451Z,4.22
2022-12-22T21:04:21.653Z,4.25
2022-12-22T21:06:52.331Z,4.26
2022-12-22T21:09:21.407Z,4.25
2022-12-22T21:11:49.878Z,4.25
2022-12-22T21:14:17.921Z,4.21
2022-12-22T21:16:45.929Z,4.18
2022-12-22T21:19:18.755Z,4.17
2022-12-22T21:21:47.657Z,4.15
2022-12-22T21:24:15.691Z,4.13
2022-12-22T21:26:48.574Z,4.13
2022-12-22T21:29:21.480Z,4.16
2022-12-22T21:31:49.890Z,4.16
2022-12-22T21:34:18.153Z,4.15
2022-12-22T21:36:49.578Z,4.13
2022-12-22T21:39:31.781Z,4.11
2022-12-22T21:42:04.486Z,4.10
2022-12-22T21:44:35.613Z,4.09
2022-12-22T21:47:03.769Z,4.13
2022-12-22T21:49:33.501Z,4.11
2022-12-22T21:52:02.316Z,4.09
2022-12-22T21:54:30.312Z,4.10
2022-12-22T21:56:58.327Z,4.12
2022-12-22T21:59:27.579Z,4.17
2022-12-22T22:01:56.677Z,4.18
2022-12-22T22:04:24.811Z,4.20
2022-12-22T22:06:52.814Z,4.18
2022-12-22T22:09:21.650Z,4.22
2022-12-22T22:12:10.371Z,4.22
2022-12-22T22:14:38.428Z,4.24
2022-12-22T22:17:06.421Z,4.29
2022-12-22T22:19:34.386Z,4.31
2022-12-22T22:22:02.331Z,4.30
2022-12-22T22:24:31.208Z,4.28
2022-12-22T22:26:59.234Z,4.30
2022-12-22T22:29:27.184Z,4.35
2022-12-22T22:31:55.121Z,4.34
2022-12-22T22:34:23.139Z,4.33
2022-12-22T22:36:52.036Z,4.36
2022-12-22T22:39:20.015Z,4.36
2022-12-22T22:41:48.146Z,4.40
2022-12-22T22:44:16.085Z,4.49
2022-12-22T22:46:44.022Z,4.56
2022-12-22T22:49:12.082Z,4.61
2022-12-22T22:51:40.154Z,4.65
2022-12-22T22:54:11.248Z,4.73
2022-12-22T22:56:38.936Z,4.76
2022-12-22T22:59:07.022Z,4.78
2022-12-22T23:01:34.941Z,4.81
2022-12-22T23:04:03.066Z,4.85
2022-12-22T23:06:31.108Z,4.89
2022-12-22T23:09:00.763Z,4.92
2022-12-22T23:11:28.814Z,4.96
2022-12-22T23:13:56.801Z,5.03
2022-12-22T23:16:25.136Z,5.09
2022-12-22T23:18:54.252Z,5.08
2022-12-22T23:21:23.534Z,5.05
2022-12-22T23:23:56.743Z,5.02
2022-12-22T23:26:25.733Z,5.03
2022-12-22T23:28:59.268Z,5.02
2022-12-22T23:31:34.683Z,5.00
2022-12-22T23:34:02.960Z,5.01
2022-12-22T23:36:31.808Z,5.00
2022-12-22T23:38:59.959Z,4.97
2022-12-22T23:41:28.222Z,4.94
2022-12-22T23:43:56.395Z,4.94
2022-12-22T23:46:24.341Z,4.97
2022-12-22T23:48:54.317Z,4.99
2022-12-22T23:51:24.375Z,5.01
2022-12-22T23:53:52.328Z,5.03
2022-12-22T23:56:20.371Z,5.03
2022-12-22T23:58:54.174Z,5.04
